createdAt,value
2022-12-12T00:00:15.212Z,16.87
2022-12-12T00:03:17.451Z,16.85
2022-12-12T00:06:20.159Z,16.84
2022-12-12T00:09:22.170Z,16.81
2022-12-12T00:12:24.222Z,16.81
2022-12-12T00:15:27.686Z,16.80
2022-12-12T00:18:29.749Z,16.77
2022-12-12T00:21:31.815Z,16.75
2022-12-12T00:24:33.887Z,16.75
2022-12-12T00:27:35.994Z,16.75
2022-12-12T00:30:38.057Z,16.71
2022-12-12T00:33:40.208Z,16.72
2022-12-12T00:36:42.664Z,16.70
2022-12-12T00:39:45.181Z,16.66
2022-12-12T00:42:47.193Z,16.67
2022-12-12T00:45:49.209Z,16.65
2022-12-12T00:48:54.799Z,16.61
2022-12-12T00:51:56.829Z,16.60
2022-12-12T00:54:58.912Z,16.58
2022-12-12T00:58:01.002Z,16.58
2022-12-12T01:01:12.049Z,16.58
2022-12-12T01:04:14.566Z,16.57
2022-12-12T01:07:16.611Z,16.54
2022-12-12T01:10:18.901Z,16.52
2022-12-12T01:13:21.137Z,16.54
2022-12-12T01:16:24.207Z,16.49
2022-12-12T01:19:26.274Z,16.47
2022-12-12T01:22:28.292Z,16.48
2022-12-12T01:25:30.343Z,16.45
2022-12-12T01:28:33.168Z,16.45
2022-12-12T01:31:35.268Z,16.43
2022-12-12T01:34:37.337Z,16.40
2022-12-12T01:37:41.263Z,16.40
2022-12-12T01:40:43.354Z,16.37
2022-12-12T01:43:46.154Z,16.36
2022-12-12T01:46:48.305Z,16.34
2022-12-12T01:49:57.314Z,16.31
2022-12-12T01:52:59.395Z,16.31
2022-12-12T01:56:05.527Z,16.30
2022-12-12T01:59:10.908Z,16.31
2022-12-12T02:02:13.392Z,16.29
2022-12-12T02:05:25.018Z,16.27
2022-12-12T02:08:28.154Z,16.27
2022-12-12T02:11:32.431Z,16.26
2022-12-12T02:14:40.583Z,16.24
2022-12-12T02:18:03.916Z,16.21
2022-12-12T02:21:20.720Z,16.19
2022-12-12T02:24:47.877Z,16.19
2022-12-12T02:28:40.961Z,16.16
2022-12-12T02:31:49.037Z,16.15
2022-12-12T02:35:00.941Z,16.12
2022-12-12T02:38:09.668Z,16.13
2022-12-12T02:41:18.554Z,16.08
2022-12-12T02:44:28.176Z,16.10
2022-12-12T02:47:38.347Z,16.07
2022-12-12T02:50:42.781Z,16.06
2022-12-12T02:53:44.918Z,16.05
2022-12-12T02:56:59.755Z,16.05
2022-12-12T03:00:10.868Z,16.01
2022-12-12T03:03:45.653Z,16.00
2022-12-12T03:07:37.871Z,16.00
2022-12-12T03:10:53.228Z,15.96
2022-12-12T03:14:13.923Z,15.95
2022-12-12T03:17:36.143Z,15.93
2022-12-12T03:20:49.378Z,15.93
2022-12-12T03:23:57.370Z,15.90
2022-12-12T03:27:04.390Z,15.90
2022-12-12T03:30:10.348Z,15.87
2022-12-12T03:33:39.938Z,15.86
2022-12-12T03:36:54.276Z,15.84
2022-12-12T03:40:05.594Z,15.84
2022-12-12T03:43:19.698Z,15.81
2022-12-12T03:46:29.933Z,15.77
2022-12-12T03:49:41.473Z,15.77
2022-12-12T03:52:50.730Z,15.75
2022-12-12T03:56:11.814Z,15.75
2022-12-12T03:59:38.472Z,15.74
2022-12-12T04:02:58.558Z,15.72
2022-12-12T04:06:24.072Z,15.80
2022-12-12T04:09:50.582Z,15.82
2022-12-12T04:13:04.326Z,15.85
2022-12-12T04:16:18.399Z,15.91
2022-12-12T04:19:53.082Z,15.95
2022-12-12T04:23:15.484Z,16.04
2022-12-12T04:26:39.663Z,16.12
2022-12-12T04:29:53.106Z,16.20
2022-12-12T04:33:05.630Z,16.26
2022-12-12T04:36:11.243Z,16.37
2022-12-12T04:39:16.144Z,16.47
2022-12-12T04:42:22.255Z,16.57
2022-12-12T04:45:29.189Z,16.64
2022-12-12T04:48:40.136Z,16.74
2022-12-12T04:51:51.399Z,16.77
2022-12-12T04:55:08.004Z,16.82
2022-12-12T04:58:10.724Z,16.88
2022-12-12T05:01:57.431Z,16.95
2022-12-12T05:05:06.236Z,17.00
2022-12-12T05:08:20.730Z,17.04
2022-12-12T05:11:23.366Z,17.08
2022-12-12T05:14:25.428Z,17.15
2022-12-12T05:17:34.561Z,17.15
2022-12-12T05:20:36.723Z,17.15
2022-12-12T05:23:38.772Z,17.22
2022-12-12T05:26:41.171Z,17.25
2022-12-12T05:29:43.225Z,17.24
2022-12-12T05:32:45.341Z,17.25
2022-12-12T05:35:47.373Z,17.34
2022-12-12T05:38:49.423Z,17.34
2022-12-12T05:41:51.480Z,17.34
2022-12-12T05:44:53.730Z,17.37
2022-12-12T05:47:55.853Z,17.43
2022-12-12T05:51:00.005Z,17.45
2022-12-12T05:54:02.089Z,17.41
2022-12-12T05:57:04.116Z,17.43
2022-12-12T06:00:06.919Z,17.51
2022-12-12T06:03:09.136Z,17.51
2022-12-12T06:06:11.202Z,17.47
2022-12-12T06:09:13.504Z,17.53
2022-12-12T06:12:15.532Z,17.55
2022-12-12T06:15:17.733Z,17.56
2022-12-12T06:18:20.089Z,17.53
2022-12-12T06:21:22.707Z,17.59
2022-12-12T06:24:24.860Z,17.65
2022-12-12T06:27:27.328Z,17.65
2022-12-12T06:30:29.480Z,17.63
2022-12-12T06:33:35.370Z,17.63
2022-12-12T06:36:37.881Z,17.70
2022-12-12T06:39:39.925Z,17.67
2022-12-12T06:42:46.398Z,17.66
2022-12-12T06:45:50.493Z,17.70
2022-12-12T06:48:53.830Z,17.77
2022-12-12T06:51:56.026Z,17.82
2022-12-12T06:54:58.081Z,17.90
2022-12-12T06:58:00.222Z,17.99
2022-12-12T07:01:02.526Z,18.05
2022-12-12T07:04:04.810Z,18.02
2022-12-12T07:07:06.871Z,18.05
2022-12-12T07:10:09.503Z,18.10
2022-12-12T07:13:11.904Z,18.12
2022-12-12T07:16:14.498Z,18.09
2022-12-12T07:19:16.611Z,18.14
2022-12-12T07:22:18.696Z,18.26
2022-12-12T07:25:20.756Z,18.29
2022-12-12T07:28:22.867Z,18.32
2022-12-12T07:31:26.505Z,18.33
2022-12-12T07:34:32.512Z,18.44
2022-12-12T07:37:34.606Z,18.46
2022-12-12T07:40:36.971Z,18.46
2022-12-12T07:43:43.727Z,18.53
2022-12-12T07:46:46.592Z,18.64
2022-12-12T07:49:48.634Z,18.62
2022-12-12T07:52:50.624Z,18.61
2022-12-12T07:55:52.615Z,18.66
2022-12-12T07:58:55.491Z,18.69
2022-12-12T08:01:57.636Z,18.70
2022-12-12T08:04:59.721Z,18.67
2022-12-12T08:08:01.767Z,18.73
2022-12-12T08:11:08.931Z,18.82
2022-12-12T08:14:13.268Z,18.68
2022-12-12T08:17:15.581Z,18.74
2022-12-12T08:20:17.744Z,18.83
2022-12-12T08:23:19.732Z,18.93
2022-12-12T08:26:21.907Z,18.89
2022-12-12T08:29:23.891Z,18.86
2022-12-12T08:32:25.909Z,18.94
2022-12-12T08:35:30.464Z,19.03
2022-12-12T08:38:32.491Z,18.85
2022-12-12T08:41:36.634Z,18.91
2022-12-12T08:44:38.637Z,19.07
2022-12-12T08:47:40.699Z,19.10
2022-12-12T08:50:42.877Z,19.06
2022-12-12T08:53:46.157Z,19.05
2022-12-12T08:56:48.217Z,19.16
2022-12-12T08:59:50.256Z,19.22
2022-12-12T09:02:52.422Z,19.24
2022-12-12T09:05:54.575Z,19.24
2022-12-12T09:08:57.420Z,19.29
2022-12-12T09:11:59.934Z,19.43
2022-12-12T09:15:02.020Z,19.43
2022-12-12T09:18:04.874Z,19.48
2022-12-12T09:21:07.354Z,19.55
2022-12-12T09:24:09.917Z,19.63
2022-12-12T09:27:11.919Z,19.63
2022-12-12T09:30:14.400Z,19.68
2022-12-12T09:33:17.747Z,19.71
2022-12-12T09:36:19.957Z,19.79
2022-12-12T09:39:21.955Z,19.79
2022-12-12T09:42:28.958Z,19.81
2022-12-12T09:45:35.655Z,19.91
2022-12-12T09:48:46.237Z,19.86
2022-12-12T09:51:50.911Z,19.82
2022-12-12T09:54:52.942Z,19.79
2022-12-12T09:57:57.542Z,19.74
2022-12-12T10:01:18.164Z,19.68
2022-12-12T10:04:51.816Z,19.66
2022-12-12T10:07:57.460Z,19.66
2022-12-12T10:11:06.898Z,19.81
2022-12-12T10:14:11.435Z,19.86
2022-12-12T10:17:24.061Z,19.84
2022-12-12T10:20:29.494Z,19.80
2022-12-12T10:23:44.311Z,19.84
2022-12-12T10:26:46.462Z,19.88
2022-12-12T10:29:49.073Z,19.79
2022-12-12T10:33:00.030Z,19.76
2022-12-12T10:36:40.381Z,19.83
2022-12-12T10:40:00.118Z,19.82
2022-12-12T10:43:10.516Z,19.84
2022-12-12T10:46:18.528Z,19.89
2022-12-12T10:49:23.676Z,19.99
2022-12-12T10:52:25.672Z,20.01
2022-12-12T10:55:53.500Z,19.97
2022-12-12T10:59:01.344Z,19.98
2022-12-12T11:02:11.113Z,20.05
2022-12-12T11:05:26.854Z,20.04
2022-12-12T11:08:33.982Z,19.97
2022-12-12T11:11:36.196Z,20.04
2022-12-12T11:14:48.006Z,20.16
2022-12-12T11:17:50.418Z,20.19
2022-12-12T11:21:09.586Z,20.21
2022-12-12T11:24:38.786Z,20.34
2022-12-12T11:27:41.537Z,20.40
2022-12-12T11:30:44.421Z,20.36
2022-12-12T11:33:49.405Z,20.34
2022-12-12T11:36:51.915Z,20.36
2022-12-12T11:39:55.926Z,20.37
2022-12-12T11:43:27.874Z,20.42
2022-12-12T11:46:31.462Z,20.44
2022-12-12T11:49:33.578Z,20.53
2022-12-12T11:52:35.562Z,20.53
2022-12-12T11:56:01.479Z,20.55
2022-12-12T11:59:33.705Z,20.57
2022-12-12T12:03:16.637Z,20.58
2022-12-12T12:06:21.166Z,20.62
2022-12-12T12:09:43.014Z,20.65
2022-12-12T12:13:03.116Z,20.72
2022-12-12T12:16:32.584Z,20.68
2022-12-12T12:19:52.058Z,20.66
2022-12-12T12:23:19.199Z,20.62
2022-12-12T12:26:35.649Z,20.66
2022-12-12T12:30:11.009Z,20.62
2022-12-12T12:33:39.160Z,20.63
2022-12-12T12:37:00.932Z,20.65
2022-12-12T12:40:26.080Z,20.66
2022-12-12T12:43:46.495Z,20.69
2022-12-12T12:47:22.117Z,20.70
2022-12-12T12:50:38.482Z,20.71
2022-12-12T12:53:59.713Z,20.69
2022-12-12T12:57:14.746Z,20.68
2022-12-12T13:00:23.375Z,20.69
2022-12-12T13:03:30.790Z,20.66
2022-12-12T13:06:46.154Z,20.71
2022-12-12T13:10:01.007Z,20.73
2022-12-12T13:13:16.806Z,20.73
2022-12-12T13:16:22.491Z,20.75
2022-12-12T13:19:31.312Z,20.69
2022-12-12T13:22:59.472Z,20.63
2022-12-12T13:26:11.959Z,20.76
2022-12-12T13:29:33.892Z,21.01
2022-12-12T13:33:05.783Z,21.16
2022-12-12T13:36:14.301Z,21.46
2022-12-12T13:39:31.537Z,21.67
2022-12-12T13:42:53.690Z,21.83
2022-12-12T13:45:56.197Z,21.79
2022-12-12T13:49:00.723Z,21.68
2022-12-12T13:52:24.389Z,21.51
2022-12-12T13:55:26.398Z,21.11
2022-12-12T13:58:35.198Z,20.83
2022-12-12T14:01:40.832Z,20.60
2022-12-12T14:04:44.458Z,20.46
2022-12-12T14:07:57.555Z,20.28
2022-12-12T14:11:02.135Z,20.17
2022-12-12T14:14:18.320Z,20.13
2022-12-12T14:17:22.953Z,19.97
2022-12-12T14:20:29.616Z,19.86
2022-12-12T14:23:38.170Z,19.76
2022-12-12T14:26:40.130Z,19.70
2022-12-12T14:29:46.402Z,19.66
2022-12-12T14:33:02.903Z,19.62
2022-12-12T14:36:35.058Z,19.53
2022-12-12T14:39:51.177Z,19.54
2022-12-12T14:43:19.479Z,19.48
2022-12-12T14:46:24.682Z,19.46
2022-12-12T14:49:26.894Z,19.43
2022-12-12T14:52:29.139Z,19.41
2022-12-12T14:55:31.490Z,19.35
2022-12-12T14:58:40.735Z,19.32
2022-12-12T15:01:47.187Z,19.26
2022-12-12T15:04:53.148Z,19.20
2022-12-12T15:07:59.630Z,19.13
2022-12-12T15:11:01.734Z,19.10
2022-12-12T15:14:04.122Z,19.05
2022-12-12T15:17:08.815Z,19.00
2022-12-12T15:20:26.069Z,18.97
2022-12-12T15:23:28.181Z,18.95
2022-12-12T15:26:30.940Z,18.94
2022-12-12T15:29:34.901Z,18.92
2022-12-12T15:32:37.182Z,18.89
2022-12-12T15:35:39.208Z,18.92
2022-12-12T15:38:41.376Z,18.88
2022-12-12T15:41:44.768Z,18.88
2022-12-12T15:44:47.977Z,18.86
2022-12-12T15:47:53.133Z,18.81
2022-12-12T15:50:57.185Z,18.74
2022-12-12T15:54:06.501Z,18.76
2022-12-12T15:57:16.062Z,18.72
2022-12-12T16:00:35.329Z,18.69
2022-12-12T16:03:37.530Z,18.67
2022-12-12T16:06:47.905Z,18.66
2022-12-12T16:10:24.058Z,18.66
2022-12-12T16:13:36.989Z,18.64
2022-12-12T16:16:45.415Z,18.56
2022-12-12T16:19:54.777Z,18.52
2022-12-12T16:23:09.997Z,18.53
2022-12-12T16:26:12.041Z,18.52
2022-12-12T16:29:14.032Z,18.48
2022-12-12T16:32:18.449Z,18.47
2022-12-12T16:35:23.242Z,18.46
2022-12-12T16:38:25.357Z,18.40
2022-12-12T16:41:27.662Z,18.40
2022-12-12T16:44:30.466Z,18.37
2022-12-12T16:47:32.491Z,18.35
2022-12-12T16:50:34.517Z,18.30
2022-12-12T16:53:37.175Z,18.32
2022-12-12T16:56:39.203Z,18.33
2022-12-12T16:59:41.291Z,18.30
2022-12-12T17:02:44.219Z,18.32
2022-12-12T17:05:47.392Z,18.29
2022-12-12T17:08:49.391Z,18.26
2022-12-12T17:11:51.398Z,18.25
2022-12-12T17:14:53.375Z,18.25
2022-12-12T17:17:56.419Z,18.22
2022-12-12T17:20:58.428Z,18.15
2022-12-12T17:24:00.407Z,18.11
2022-12-12T17:27:02.414Z,18.13
2022-12-12T17:30:07.136Z,18.11
2022-12-12T17:33:19.339Z,18.10
2022-12-12T17:36:21.399Z,18.04
2022-12-12T17:39:23.551Z,18.04
2022-12-12T17:42:25.612Z,18.04
2022-12-12T17:45:27.685Z,18.06
2022-12-12T17:48:31.007Z,18.06
2022-12-12T17:51:33.058Z,18.07
2022-12-12T17:54:35.208Z,18.04
2022-12-12T17:57:37.341Z,18.03
2022-12-12T18:00:39.432Z,18.02
2022-12-12T18:03:42.376Z,18.00
2022-12-12T18:06:44.394Z,17.97
2022-12-12T18:09:46.399Z,17.95
2022-12-12T18:12:51.554Z,17.91
2022-12-12T18:16:00.645Z,17.91
2022-12-12T18:19:03.049Z,17.89
2022-12-12T18:22:05.102Z,17.88
2022-12-12T18:25:07.611Z,17.87
2022-12-12T18:28:12.197Z,17.84
2022-12-12T18:31:14.479Z,17.84
2022-12-12T18:34:16.601Z,17.81
2022-12-12T18:37:18.682Z,17.81
2022-12-12T18:40:21.126Z,17.79
2022-12-12T18:43:24.114Z,17.79
2022-12-12T18:46:27.592Z,17.77
2022-12-12T18:49:29.648Z,17.74
2022-12-12T18:52:33.710Z,17.74
2022-12-12T18:55:39.719Z,17.75
2022-12-12T18:58:41.760Z,17.75
2022-12-12T19:01:44.492Z,17.70
2022-12-12T19:04:48.550Z,17.70
2022-12-12T19:07:50.875Z,17.70
2022-12-12T19:10:52.991Z,17.66
2022-12-12T19:13:55.042Z,17.64
2022-12-12T19:16:57.225Z,17.63
2022-12-12T19:19:59.267Z,17.62
2022-12-12T19:23:01.264Z,17.62
2022-12-12T19:26:05.504Z,17.59
2022-12-12T19:29:18.532Z,17.60
2022-12-12T19:32:20.953Z,17.58
2022-12-12T19:35:23.123Z,17.55
2022-12-12T19:38:25.185Z,17.53
2022-12-12T19:41:28.091Z,17.52
2022-12-12T19:44:30.111Z,17.52
2022-12-12T19:47:35.641Z,17.51
2022-12-12T19:50:37.920Z,17.50
2022-12-12T19:53:51.126Z,17.48
2022-12-12T19:56:53.144Z,17.49
2022-12-12T19:59:55.200Z,17.47
2022-12-12T20:02:57.356Z,17.48
2022-12-12T20:06:02.198Z,17.46
2022-12-12T20:09:04.261Z,17.44
2022-12-12T20:12:06.309Z,17.44
2022-12-12T20:15:08.733Z,17.41
2022-12-12T20:18:16.150Z,17.43
2022-12-12T20:21:51.608Z,17.40
2022-12-12T20:24:44.990Z,17.38
2022-12-12T20:27:46.992Z,17.37
2022-12-12T20:30:53.304Z,17.38
2022-12-12T20:33:57.688Z,17.36
2022-12-12T20:36:59.902Z,17.35
2022-12-12T20:40:01.925Z,17.34
2022-12-12T20:43:03.995Z,17.31
2022-12-12T20:46:23.924Z,17.33
2022-12-12T20:49:29.299Z,17.34
2022-12-12T20:52:31.370Z,17.33
2022-12-12T20:55:36.779Z,17.30
2022-12-12T20:58:39.508Z,17.33
2022-12-12T21:01:42.702Z,17.32
2022-12-12T21:04:44.814Z,17.31
2022-12-12T21:07:47.162Z,17.29
2022-12-12T21:10:49.323Z,17.28
2022-12-12T21:13:52.808Z,17.28
2022-12-12T21:16:55.215Z,17.26
2022-12-12T21:20:00.517Z,17.22
2022-12-12T21:23:06.846Z,17.22
2022-12-12T21:26:18.510Z,17.20
2022-12-12T21:29:21.796Z,17.22
2022-12-12T21:32:24.024Z,17.19
2022-12-12T21:35:26.036Z,17.16
2022-12-12T21:38:28.051Z,17.15
2022-12-12T21:41:30.059Z,17.14
2022-12-12T21:44:32.091Z,17.14
2022-12-12T21:47:36.752Z,17.11
2022-12-12T21:50:38.835Z,17.13
2022-12-12T21:53:41.655Z,17.13
2022-12-12T21:56:43.986Z,17.10
2022-12-12T21:59:48.731Z,17.07
2022-12-12T22:02:50.765Z,17.06
2022-12-12T22:05:52.816Z,17.07
2022-12-12T22:08:55.903Z,17.03
2022-12-12T22:12:03.289Z,17.02
2022-12-12T22:15:06.181Z,17.01
2022-12-12T22:18:08.284Z,17.01
2022-12-12T22:21:16.022Z,17.00
2022-12-12T22:24:18.601Z,16.96
2022-12-12T22:27:20.588Z,16.94
2022-12-12T22:30:22.576Z,16.94
2022-12-12T22:33:24.573Z,16.92
2022-12-12T22:36:37.527Z,16.89
2022-12-12T22:39:39.535Z,16.91
2022-12-12T22:42:41.564Z,16.88
2022-12-12T22:45:43.559Z,16.87
2022-12-12T22:48:45.565Z,16.87
2022-12-12T22:51:48.787Z,16.84
2022-12-12T22:54:51.686Z,16.81
2022-12-12T22:57:53.701Z,16.81
2022-12-12T23:00:55.770Z,16.82
2022-12-12T23:03:58.240Z,16.77
2022-12-12T23:07:00.251Z,16.76
2022-12-12T23:10:02.461Z,16.76
2022-12-12T23:13:04.866Z,16.73
2022-12-12T23:16:09.645Z,16.71
2022-12-12T23:19:14.521Z,16.72
2022-12-12T23:22:17.041Z,16.71
2022-12-12T23:25:19.056Z,16.69
2022-12-12T23:28:21.123Z,16.67
2022-12-12T23:31:26.250Z,16.66
2022-12-12T23:34:28.696Z,16.65
2022-12-12T23:37:30.723Z,16.67
2022-12-12T23:40:34.376Z,16.65
2022-12-12T23:43:36.587Z,16.64
2022-12-12T23:46:38.719Z,16.60
2022-12-12T23:49:40.739Z,16.59
2022-12-12T23:52:42.824Z,16.60
2022-12-12T23:55:44.864Z,16.59
2022-12-12T23:58:46.865Z,16.55
